Terminal Aerodrome Forecast
Issued by NWS Upton, NY

Home | Current Version | Previous Version | Text Only | Print | Product List | Glossary On
Versions: 1 2 3 4 5 6 7 8 9 10 11 12 13 14 15 16 17 18 19 20 21 22 23 24 25 26 27 28 29 30 31 32 33 34 35 36 37 38 39
763
FTUS41 KOKX 191532 AAB
TAFJFK
TAF AMD
KJFK 191532Z 1916/2018 04020G28KT 6SM -SHRA BR BKN020
     FM191800 03020G29KT 6SM -SHRA BR BKN025 OVC100
     FM192200 02020G30KT P6SM VCSH SCT025 BKN035
     FM200300 36022G32KT P6SM OVC030
     FM201400 35018G27KT P6SM BKN035=

USA.gov is the U.S. government's official web portal to all federal, state and local government web resources and services.